Time;durP1;ratioP1;P1;durP2;ratioP2;P2;SDS_P1;SDS_P2;PMS_P1;PMS_P2;Temp;Humidity;BMP_temperature;BMP_pressure;BME280_temperature;BME280_humidity;BME280_pressure;Samples;Min_cycle;Max_cycle;Signal;HPM_P1;HPM_P2
2023/10/30 00:01:05;;;;;;;22.40;13.10;;;;;;;10.51;88.40;97630.45;435217;1250;107540;-41
2023/10/30 00:11:15;;;;;;;19.20;10.90;;;;;;;10.45;88.59;97642.90;435135;1256;98285;-41
2023/10/30 00:21:20;;;;;;;13.90;7.70;;;;;;;10.44;88.82;97644.33;435261;1255;109526;-39
2023/10/30 00:31:23;;;;;;;17.10;6.90;;;;;;;10.60;89.44;97638.35;435151;1255;107671;-40
2023/10/30 00:51:31;;;;;;;12.60;5.00;;;;;;;11.12;89.88;97627.55;435317;1254;108560;-41
2023/10/30 01:01:34;;;;;;;12.70;6.80;;;;;;;11.32;89.95;97624.46;435414;1255;97902;-41
2023/10/30 01:11:41;;;;;;;12.40;6.30;;;;;;;11.33;89.95;97627.05;435311;1254;111536;-41
2023/10/30 01:21:45;;;;;;;9.90;4.70;;;;;;;11.40;89.64;97636.53;435274;1255;109119;-41
2023/10/30 01:31:48;;;;;;;11.40;5.60;;;;;;;11.47;89.77;97620.56;435219;1255;97909;-40
2023/10/30 01:41:52;;;;;;;8.70;4.20;;;;;;;11.49;89.63;97623.33;435352;1255;110442;-40
2023/10/30 01:51:55;;;;;;;11.10;5.60;;;;;;;11.48;89.64;97623.42;435268;1255;108306;-39
2023/10/30 02:01:59;;;;;;;15.10;7.30;;;;;;;11.36;89.64;97628.05;435567;1255;97366;-40
2023/10/30 02:12:03;;;;;;;10.80;6.10;;;;;;;11.28;89.58;97640.59;436018;1248;97888;-40
2023/10/30 02:22:07;;;;;;;14.10;5.80;;;;;;;11.26;89.78;97640.75;435089;1258;108625;-39
2023/10/30 02:32:10;;;;;;;10.60;5.10;;;;;;;11.38;90.19;97659.07;435079;1258;97495;-41
2023/10/30 02:52:20;;;;;;;12.50;5.80;;;;;;;11.51;89.97;97694.59;435088;1259;96711;-40
2023/10/30 03:02:27;;;;;;;10.20;5.10;;;;;;;11.41;89.80;97698.21;435000;1266;110175;-40
2023/10/30 03:12:30;;;;;;;12.30;6.80;;;;;;;11.29;89.71;97697.08;434916;1256;107844;-40
2023/10/30 03:22:34;;;;;;;11.20;5.00;;;;;;;11.15;89.83;97690.50;434989;1252;97877;-40
2023/10/30 03:32:38;;;;;;;9.70;4.00;;;;;;;11.11;90.12;97693.32;435049;1257;107367;-41
2023/10/30 03:42:42;;;;;;;7.90;4.40;;;;;;;11.17;90.49;97689.83;435217;1257;98066;-41
2023/10/30 03:52:45;;;;;;;10.70;4.90;;;;;;;11.21;90.44;97686.88;435340;1256;111021;-40
2023/10/30 04:02:49;;;;;;;7.70;3.60;;;;;;;11.22;90.64;97686.88;434963;1275;108528;-40
2023/10/30 04:12:57;;;;;;;5.40;3.70;;;;;;;11.28;90.90;97695.85;435166;1252;98821;-40
2023/10/30 04:23:00;;;;;;;8.70;3.10;;;;;;;11.43;91.26;97689.74;434991;1259;109350;-41
2023/10/30 04:33:08;;;;;;;6.20;3.10;;;;;;;11.50;91.22;97684.95;435136;1258;97992;-41
2023/10/30 04:43:11;;;;;;;5.50;3.50;;;;;;;11.53;91.19;97684.85;435034;1259;111549;-39
2023/10/30 04:53:15;;;;;;;6.00;2.80;;;;;;;11.53;91.38;97673.10;434994;1254;107805;-40
2023/10/30 05:03:18;;;;;;;7.70;3.20;;;;;;;11.52;91.35;97673.58;434903;1257;97903;-40
2023/10/30 05:13:22;;;;;;;10.70;4.10;;;;;;;11.52;91.45;97679.50;434990;1258;109450;-41
2023/10/30 05:23:24;;;;;;;10.70;5.90;;;;;;;11.57;91.38;97688.09;435125;1257;97780;-41
2023/10/30 05:43:31;;;;;;;5.20;3.90;;;;;;;11.68;91.50;97729.20;435078;1257;97909;-41
2023/10/30 05:53:34;;;;;;;7.80;4.80;;;;;;;11.70;91.34;97748.54;435147;1256;97464;-40
2023/10/30 06:03:38;;;;;;;11.60;4.90;;;;;;;11.78;91.40;97750.81;434899;1255;109561;-40
2023/10/30 06:13:42;;;;;;;9.90;4.40;;;;;;;11.95;91.41;97762.66;435044;1265;108528;-40
2023/10/30 06:23:47;;;;;;;8.20;3.70;;;;;;;12.11;91.46;97774.17;435082;1258;98377;-41
2023/10/30 06:43:54;;;;;;;8.40;3.50;;;;;;;12.36;91.28;97800.38;434981;1266;109022;-41
2023/10/30 06:53:57;;;;;;;7.90;3.00;;;;;;;12.49;91.31;97798.48;434939;1255;97893;-42
2023/10/30 07:04:00;;;;;;;4.10;2.20;;;;;;;12.71;91.40;97813.50;435053;1259;107745;-39
2023/10/30 07:14:05;;;;;;;4.40;2.40;;;;;;;13.61;91.67;97827.05;435030;1256;98325;-41
2023/10/30 07:24:09;;;;;;;9.60;2.70;;;;;;;14.79;90.90;97821.74;435112;1258;110599;-41
2023/10/30 07:34:13;;;;;;;6.30;2.60;;;;;;;15.55;89.71;97823.25;435179;1254;107341;-41
2023/10/30 07:44:16;;;;;;;3.20;2.10;;;;;;;16.19;88.35;97827.48;435142;1257;97867;-40
2023/10/30 08:24:31;;;;;;;5.80;2.50;;;;;;;16.50;82.44;97845.94;435183;1254;107933;-41
2023/10/30 08:34:35;;;;;;;5.50;1.80;;;;;;;16.70;81.63;97848.14;435162;1257;98002;-41
2023/10/30 09:04:46;;;;;;;4.40;2.00;;;;;;;16.94;80.36;97843.59;435256;1254;109475;-41
2023/10/30 09:14:49;;;;;;;8.60;2.10;;;;;;;16.88;80.02;97844.75;435295;1257;108239;-40
2023/10/30 09:24:56;;;;;;;7.30;2.00;;;;;;;16.86;79.99;97843.73;435233;1254;97893;-40
2023/10/30 09:55:11;;;;;;;6.90;2.50;;;;;;;16.75;79.96;97861.95;435128;1257;110306;-41
2023/10/30 10:05:16;;;;;;;3.50;2.00;;;;;;;16.70;79.67;97860.96;435068;1257;109676;-41
2023/10/30 10:15:20;;;;;;;5.90;2.30;;;;;;;16.63;79.26;97853.41;435163;1256;97871;-41
2023/10/30 10:25:24;;;;;;;6.20;2.70;;;;;;;16.70;79.29;97837.79;435150;1258;97870;-40
2023/10/30 10:35:31;;;;;;;5.60;2.00;;;;;;;16.91;79.08;97832.80;435150;1266;107987;-41
2023/10/30 10:45:35;;;;;;;8.30;2.90;;;;;;;16.92;78.70;97834.33;435245;1257;97870;-40
2023/10/30 10:55:41;;;;;;;7.10;2.50;;;;;;;17.13;78.99;97820.44;435145;1251;107898;-41
2023/10/30 11:15:57;;;;;;;4.10;1.90;;;;;;;17.58;77.39;97815.58;435216;1257;109486;-40
2023/10/30 11:26:01;;;;;;;5.80;2.30;;;;;;;17.65;76.94;97801.56;435208;1252;107576;-40
2023/10/30 11:46:29;;;;;;;4.50;2.30;;;;;;;17.71;75.94;97793.59;435198;1257;109740;-41
2023/10/30 11:56:33;;;;;;;4.80;1.80;;;;;;;17.75;75.19;97793.42;435186;1251;107289;-41
2023/10/30 12:06:37;;;;;;;5.40;1.60;;;;;;;17.78;75.03;97784.83;435141;1252;97896;-40
2023/10/30 12:16:45;;;;;;;3.10;1.60;;;;;;;17.83;75.31;97786.80;435079;1253;109418;-41
2023/10/30 12:26:48;;;;;;;4.40;1.60;;;;;;;17.88;74.48;97787.61;435071;1252;96639;-40
2023/10/30 12:57:24;;;;;;;10.40;2.50;;;;;;;17.86;74.42;97758.14;435100;1257;97865;-42
2023/10/30 13:07:27;;;;;;;5.70;1.70;;;;;;;17.87;74.50;97750.35;435371;1253;96690;-41
2023/10/30 13:17:31;;;;;;;6.10;2.00;;;;;;;17.92;73.81;97753.83;435180;1257;109278;-41
2023/10/30 13:27:39;;;;;;;8.30;4.40;;;;;;;17.84;74.16;97749.71;435063;1253;98001;-40
2023/10/30 13:37:42;;;;;;;6.50;2.60;;;;;;;17.76;74.53;97754.63;435106;1252;109829;-40
2023/10/30 13:47:45;;;;;;;10.60;2.70;;;;;;;17.52;74.54;97762.58;435138;1254;97867;-41
2023/10/30 13:57:49;;;;;;;11.80;3.70;;;;;;;17.30;74.68;97749.41;435074;1253;110260;-40
2023/10/30 14:07:53;;;;;;;5.70;3.80;;;;;;;17.24;75.11;97752.39;435182;1252;107657;-41
2023/10/30 14:17:57;;;;;;;6.70;3.80;;;;;;;17.13;75.32;97760.34;435246;1257;97578;-41
2023/10/30 14:28:00;;;;;;;9.60;5.30;;;;;;;16.94;75.73;97755.95;435109;1252;107755;-40
2023/10/30 14:38:04;;;;;;;8.20;4.30;;;;;;;16.71;75.95;97740.61;435002;1256;97873;-41
2023/10/30 14:48:07;;;;;;;9.60;4.60;;;;;;;16.50;76.27;97743.58;435223;1257;109915;-39
2023/10/30 14:58:11;;;;;;;6.80;4.40;;;;;;;16.26;76.51;97729.99;435122;1252;107640;-40
2023/10/30 15:08:14;;;;;;;12.60;6.50;;;;;;;15.93;76.69;97725.73;435123;1256;97874;-41
2023/10/30 15:18:18;;;;;;;18.90;9.00;;;;;;;15.62;77.04;97728.70;435055;1257;97896;-41
2023/10/30 15:48:29;;;;;;;25.40;11.90;;;;;;;14.71;78.48;97692.34;434697;1252;97503;-40
2023/10/30 16:08:38;;;;;;;27.90;14.00;;;;;;;14.34;79.38;97689.45;434497;1252;97526;-40
2023/10/30 16:18:48;;;;;;;34.10;16.40;;;;;;;14.23;79.76;97706.38;434496;1259;108046;-40
2023/10/30 16:28:54;;;;;;;42.90;21.90;;;;;;;14.13;80.19;97715.47;434623;1258;97759;-41
2023/10/30 16:38:58;;;;;;;36.20;22.50;;;;;;;14.01;80.60;97723.05;434495;1252;110946;-41
2023/10/30 16:49:02;;;;;;;37.70;22.70;;;;;;;13.91;80.98;97727.70;434423;1257;107170;-40
2023/10/30 16:59:09;;;;;;;46.40;23.50;;;;;;;13.81;81.37;97741.03;434466;1254;97946;-41
2023/10/30 17:09:12;;;;;;;46.80;23.30;;;;;;;13.70;81.77;97709.84;434494;1256;109491;-40
2023/10/30 17:19:16;;;;;;;52.30;29.60;;;;;;;13.57;82.30;97696.71;434636;1258;97880;-41
2023/10/30 17:29:20;;;;;;;56.90;30.20;;;;;;;13.53;82.61;97699.55;434550;1258;109410;-40
2023/10/30 17:39:27;;;;;;;52.20;30.70;;;;;;;13.50;82.96;97700.08;434614;1252;107825;-40
2023/10/30 17:49:30;;;;;;;43.90;26.90;;;;;;;13.44;83.17;97691.48;434469;1252;97898;-40
2023/10/30 17:59:34;;;;;;;48.10;24.80;;;;;;;13.42;83.44;97672.05;434649;1257;108574;-40
2023/10/30 18:09:38;;;;;;;44.70;24.10;;;;;;;13.44;83.68;97652.08;434861;1252;98570;-40
2023/10/30 18:19:40;;;;;;;45.20;26.40;;;;;;;13.43;83.87;97644.33;434752;1252;110614;-42
2023/10/30 18:39:50;;;;;;;44.20;22.10;;;;;;;13.46;84.13;97624.87;434664;1275;97921;-41
2023/10/30 18:59:58;;;;;;;45.50;23.10;;;;;;;13.37;84.54;97608.62;434919;1257;109161;-40
2023/10/30 19:10:02;;;;;;;40.40;19.80;;;;;;;13.39;84.79;97607.55;434906;1252;97151;-40
2023/10/30 19:30:33;;;;;;;47.30;22.00;;;;;;;13.37;84.68;97600.55;434722;1258;97906;-40
2023/10/30 19:40:38;;;;;;;33.50;20.90;;;;;;;13.32;84.70;97597.13;434907;1252;110604;-41
2023/10/30 19:50:41;;;;;;;41.50;21.40;;;;;;;13.16;84.74;97582.73;434813;1258;96599;-40
2023/10/30 20:00:45;;;;;;;38.40;21.60;;;;;;;13.04;84.74;97570.98;434632;1252;96645;-41
2023/10/30 20:10:48;;;;;;;38.80;21.80;;;;;;;12.98;84.84;97553.79;434819;1253;110712;-41
2023/10/30 20:20:52;;;;;;;41.40;23.40;;;;;;;12.91;85.08;97530.89;434729;1259;108345;-40
2023/10/30 20:40:59;;;;;;;40.10;20.10;;;;;;;12.87;85.66;97497.44;434907;1258;108509;-40
2023/10/30 20:51:02;;;;;;;33.30;20.00;;;;;;;12.85;85.78;97483.06;434869;1254;97999;-41
2023/10/30 21:01:05;;;;;;;45.30;26.80;;;;;;;12.74;85.93;97469.48;435009;1253;109860;-40
2023/10/30 21:11:09;;;;;;;45.30;24.90;;;;;;;12.50;85.96;97464.84;434737;1258;97890;-41
2023/10/30 21:21:12;;;;;;;40.50;22.80;;;;;;;12.30;86.32;97442.11;434689;1258;97900;-40
2023/10/30 21:31:15;;;;;;;50.30;26.20;;;;;;;12.21;87.00;97418.69;434830;1252;109843;-41
2023/10/30 21:41:18;;;;;;;48.90;24.60;;;;;;;12.20;87.31;97407.77;434700;1257;108188;-40
2023/10/30 21:51:21;;;;;;;37.10;20.40;;;;;;;12.19;87.37;97396.60;434718;1253;97478;-40
2023/10/30 22:01:25;;;;;;;38.60;19.00;;;;;;;12.23;87.50;97391.33;434873;1258;107890;-41
2023/10/30 22:21:32;;;;;;;29.60;16.20;;;;;;;12.40;87.82;97371.60;435122;1257;110184;-39
2023/10/30 22:31:35;;;;;;;26.50;14.30;;;;;;;12.44;87.80;97361.73;434975;1269;108219;-40
2023/10/30 22:41:39;;;;;;;30.40;16.20;;;;;;;12.50;87.87;97338.79;434769;1253;98286;-40
2023/10/30 22:51:42;;;;;;;31.90;14.50;;;;;;;12.54;87.78;97311.79;434879;1258;107648;-40
2023/10/30 23:01:45;;;;;;;25.60;13.90;;;;;;;12.61;87.85;97276.69;434798;1256;97896;-40
2023/10/30 23:21:51;;;;;;;16.80;9.90;;;;;;;12.87;87.86;97248.02;434729;1258;107362;-41
2023/10/30 23:31:55;;;;;;;26.30;11.40;;;;;;;12.96;87.74;97224.37;434830;1258;97867;-41
2023/10/30 23:41:58;;;;;;;25.20;11.50;;;;;;;12.95;87.64;97211.96;434767;1257;98492;-40
2023/10/30 23:52:02;;;;;;;17.40;9.80;;;;;;;12.97;87.33;97208.23;434692;1258;108542;-40
